sensor_id;sensor_type;location;lat;lon;timestamp;temperature;humidity
20068;DHT22;10194;50.824;7.134;2022-08-21T00:02:19;14.80;99.90
20068;DHT22;10194;50.824;7.134;2022-08-21T00:04:47;14.70;99.90
20068;DHT22;10194;50.824;7.134;2022-08-21T00:07:13;14.70;99.90
20068;DHT22;10194;50.824;7.134;2022-08-21T00:09:39;14.70;99.90
20068;DHT22;10194;50.824;7.134;2022-08-21T00:12:06;14.60;99.90
20068;DHT22;10194;50.824;7.134;2022-08-21T00:14:33;14.70;99.90
20068;DHT22;10194;50.824;7.134;2022-08-21T00:17:00;14.60;99.90
20068;DHT22;10194;50.824;7.134;2022-08-21T00:19:26;14.60;99.90
20068;DHT22;10194;50.824;7.134;2022-08-21T00:21:54;14.50;99.90
20068;DHT22;10194;50.824;7.134;2022-08-21T00:24:21;14.50;99.90
20068;DHT22;10194;50.824;7.134;2022-08-21T00:26:48;14.60;99.90
20068;DHT22;10194;50.824;7.134;2022-08-21T00:29:14;14.60;99.90
20068;DHT22;10194;50.824;7.134;2022-08-21T00:31:42;14.50;99.90
20068;DHT22;10194;50.824;7.134;2022-08-21T00:34:08;14.50;99.90
20068;DHT22;10194;50.824;7.134;2022-08-21T00:36:35;14.60;99.90
20068;DHT22;10194;50.824;7.134;2022-08-21T00:39:02;14.50;99.90
20068;DHT22;10194;50.824;7.134;2022-08-21T00:41:30;14.50;99.90
20068;DHT22;10194;50.824;7.134;2022-08-21T00:43:56;14.70;99.90
20068;DHT22;10194;50.824;7.134;2022-08-21T00:46:22;14.80;99.90
20068;DHT22;10194;50.824;7.134;2022-08-21T00:48:48;14.60;99.90
20068;DHT22;10194;50.824;7.134;2022-08-21T00:51:17;14.50;99.90
20068;DHT22;10194;50.824;7.134;2022-08-21T00:53:54;14.50;99.90
20068;DHT22;10194;50.824;7.134;2022-08-21T00:56:23;14.50;99.90
20068;DHT22;10194;50.824;7.134;2022-08-21T00:58:50;14.40;99.90
20068;DHT22;10194;50.824;7.134;2022-08-21T01:01:19;14.30;99.90
20068;DHT22;10194;50.824;7.134;2022-08-21T01:03:46;14.30;99.90
20068;DHT22;10194;50.824;7.134;2022-08-21T01:06:12;14.30;99.90
20068;DHT22;10194;50.824;7.134;2022-08-21T01:08:38;14.30;99.90
20068;DHT22;10194;50.824;7.134;2022-08-21T01:11:05;14.30;99.90
20068;DHT22;10194;50.824;7.134;2022-08-21T01:13:34;14.50;99.90
20068;DHT22;10194;50.824;7.134;2022-08-21T01:16:04;14.50;99.90
20068;DHT22;10194;50.824;7.134;2022-08-21T01:18:31;14.40;99.90
20068;DHT22;10194;50.824;7.134;2022-08-21T01:23:33;14.40;99.90
20068;DHT22;10194;50.824;7.134;2022-08-21T01:26:00;14.30;99.90
20068;DHT22;10194;50.824;7.134;2022-08-21T01:28:26;14.30;99.90
20068;DHT22;10194;50.824;7.134;2022-08-21T01:30:53;14.30;99.90
20068;DHT22;10194;50.824;7.134;2022-08-21T01:33:22;14.30;99.90
20068;DHT22;10194;50.824;7.134;2022-08-21T01:35:50;14.20;99.90
20068;DHT22;10194;50.824;7.134;2022-08-21T01:38:15;14.20;99.90
20068;DHT22;10194;50.824;7.134;2022-08-21T01:40:43;14.10;99.90
20068;DHT22;10194;50.824;7.134;2022-08-21T01:43:09;14.00;99.90
20068;DHT22;10194;50.824;7.134;2022-08-21T01:45:35;14.00;99.90
20068;DHT22;10194;50.824;7.134;2022-08-21T01:48:01;14.00;99.90
20068;DHT22;10194;50.824;7.134;2022-08-21T01:50:28;14.00;99.90
20068;DHT22;10194;50.824;7.134;2022-08-21T01:52:54;13.90;99.90
20068;DHT22;10194;50.824;7.134;2022-08-21T01:55:20;14.00;99.90
20068;DHT22;10194;50.824;7.134;2022-08-21T01:57:47;13.90;99.90
20068;DHT22;10194;50.824;7.134;2022-08-21T02:00:16;13.90;99.90
20068;DHT22;10194;50.824;7.134;2022-08-21T02:02:45;13.80;99.90
20068;DHT22;10194;50.824;7.134;2022-08-21T02:05:12;13.80;99.90
20068;DHT22;10194;50.824;7.134;2022-08-21T02:07:43;13.80;99.90
20068;DHT22;10194;50.824;7.134;2022-08-21T02:10:13;13.70;99.90
20068;DHT22;10194;50.824;7.134;2022-08-21T02:12:41;13.70;99.90
20068;DHT22;10194;50.824;7.134;2022-08-21T02:15:07;13.70;99.90
20068;DHT22;10194;50.824;7.134;2022-08-21T02:17:43;13.70;99.90
20068;DHT22;10194;50.824;7.134;2022-08-21T02:20:21;13.60;99.90
20068;DHT22;10194;50.824;7.134;2022-08-21T02:22:49;13.60;99.90
20068;DHT22;10194;50.824;7.134;2022-08-21T02:25:16;13.50;99.90
20068;DHT22;10194;50.824;7.134;2022-08-21T02:27:45;13.60;99.90
20068;DHT22;10194;50.824;7.134;2022-08-21T02:30:31;13.60;99.90
20068;DHT22;10194;50.824;7.134;2022-08-21T02:32:59;13.60;99.90
20068;DHT22;10194;50.824;7.134;2022-08-21T02:35:26;13.60;99.90
20068;DHT22;10194;50.824;7.134;2022-08-21T02:37:59;13.80;99.90
20068;DHT22;10194;50.824;7.134;2022-08-21T02:40:29;14.00;99.90
20068;DHT22;10194;50.824;7.134;2022-08-21T02:42:57;14.10;99.90
20068;DHT22;10194;50.824;7.134;2022-08-21T02:45:24;14.00;99.90
20068;DHT22;10194;50.824;7.134;2022-08-21T02:47:56;14.00;99.90
20068;DHT22;10194;50.824;7.134;2022-08-21T02:50:33;14.00;99.90
20068;DHT22;10194;50.824;7.134;2022-08-21T02:53:02;13.90;99.90
20068;DHT22;10194;50.824;7.134;2022-08-21T02:55:31;13.90;99.90
20068;DHT22;10194;50.824;7.134;2022-08-21T02:57:59;14.00;99.90
20068;DHT22;10194;50.824;7.134;2022-08-21T03:00:28;14.00;99.90
20068;DHT22;10194;50.824;7.134;2022-08-21T03:02:55;14.00;99.90
20068;DHT22;10194;50.824;7.134;2022-08-21T03:05:23;14.00;99.90
20068;DHT22;10194;50.824;7.134;2022-08-21T03:07:49;14.00;99.90
20068;DHT22;10194;50.824;7.134;2022-08-21T03:10:16;14.00;99.90
20068;DHT22;10194;50.824;7.134;2022-08-21T03:12:42;14.00;99.90
20068;DHT22;10194;50.824;7.134;2022-08-21T03:15:11;13.90;99.90
20068;DHT22;10194;50.824;7.134;2022-08-21T03:17:38;14.00;99.90
20068;DHT22;10194;50.824;7.134;2022-08-21T03:20:05;14.00;99.90
20068;DHT22;10194;50.824;7.134;2022-08-21T03:22:32;14.00;99.90
20068;DHT22;10194;50.824;7.134;2022-08-21T03:24:58;14.00;99.90
20068;DHT22;10194;50.824;7.134;2022-08-21T03:27:25;14.00;99.90
20068;DHT22;10194;50.824;7.134;2022-08-21T03:29:52;14.00;99.90
20068;DHT22;10194;50.824;7.134;2022-08-21T03:32:19;13.90;99.90
20068;DHT22;10194;50.824;7.134;2022-08-21T03:34:45;13.90;99.90
20068;DHT22;10194;50.824;7.134;2022-08-21T03:37:12;13.80;99.90
20068;DHT22;10194;50.824;7.134;2022-08-21T03:39:39;13.80;99.90
20068;DHT22;10194;50.824;7.134;2022-08-21T03:42:06;13.90;99.90
20068;DHT22;10194;50.824;7.134;2022-08-21T03:44:32;13.90;99.90
20068;DHT22;10194;50.824;7.134;2022-08-21T03:46:58;13.80;99.90
20068;DHT22;10194;50.824;7.134;2022-08-21T03:49:25;13.80;99.90
20068;DHT22;10194;50.824;7.134;2022-08-21T03:51:51;13.70;99.90
20068;DHT22;10194;50.824;7.134;2022-08-21T03:54:17;13.80;99.90
20068;DHT22;10194;50.824;7.134;2022-08-21T03:56:43;13.80;99.90
20068;DHT22;10194;50.824;7.134;2022-08-21T03:59:09;13.80;99.90
20068;DHT22;10194;50.824;7.134;2022-08-21T04:01:35;13.60;99.90
20068;DHT22;10194;50.824;7.134;2022-08-21T04:04:02;13.60;99.90
20068;DHT22;10194;50.824;7.134;2022-08-21T04:06:29;13.50;99.90
20068;DHT22;10194;50.824;7.134;2022-08-21T04:08:55;13.50;99.90
20068;DHT22;10194;50.824;7.134;2022-08-21T04:11:21;13.40;99.90
20068;DHT22;10194;50.824;7.134;2022-08-21T04:13:48;13.30;99.90
20068;DHT22;10194;50.824;7.134;2022-08-21T04:16:14;13.30;99.90
20068;DHT22;10194;50.824;7.134;2022-08-21T04:18:40;13.20;99.90
20068;DHT22;10194;50.824;7.134;2022-08-21T04:21:09;13.20;99.90
20068;DHT22;10194;50.824;7.134;2022-08-21T04:23:36;13.30;99.90
20068;DHT22;10194;50.824;7.134;2022-08-21T04:26:02;13.30;99.90
20068;DHT22;10194;50.824;7.134;2022-08-21T04:28:28;13.30;99.90
20068;DHT22;10194;50.824;7.134;2022-08-21T04:30:55;13.40;99.90
20068;DHT22;10194;50.824;7.134;2022-08-21T04:33:22;13.30;99.90
20068;DHT22;10194;50.824;7.134;2022-08-21T04:35:49;13.40;99.90
20068;DHT22;10194;50.824;7.134;2022-08-21T04:38:15;13.40;99.90
20068;DHT22;10194;50.824;7.134;2022-08-21T04:40:41;13.40;99.90
20068;DHT22;10194;50.824;7.134;2022-08-21T04:43:09;13.40;99.90
20068;DHT22;10194;50.824;7.134;2022-08-21T04:45:40;13.40;99.90
20068;DHT22;10194;50.824;7.134;2022-08-21T04:48:09;13.40;99.90
20068;DHT22;10194;50.824;7.134;2022-08-21T04:50:40;13.40;99.90
20068;DHT22;10194;50.824;7.134;2022-08-21T04:53:13;13.40;99.90
20068;DHT22;10194;50.824;7.134;2022-08-21T04:55:42;13.40;99.90
20068;DHT22;10194;50.824;7.134;2022-08-21T04:58:11;13.40;99.90
20068;DHT22;10194;50.824;7.134;2022-08-21T05:00:39;13.40;99.90
20068;DHT22;10194;50.824;7.134;2022-08-21T05:03:05;13.40;99.90
20068;DHT22;10194;50.824;7.134;2022-08-21T05:05:32;13.40;99.90
20068;DHT22;10194;50.824;7.134;2022-08-21T05:07:59;13.30;99.90
20068;DHT22;10194;50.824;7.134;2022-08-21T05:10:27;13.40;99.90
20068;DHT22;10194;50.824;7.134;2022-08-21T05:12:54;13.40;99.90
20068;DHT22;10194;50.824;7.134;2022-08-21T05:15:20;13.50;99.90
20068;DHT22;10194;50.824;7.134;2022-08-21T05:17:46;13.50;99.90
20068;DHT22;10194;50.824;7.134;2022-08-21T05:20:13;13.60;99.90
20068;DHT22;10194;50.824;7.134;2022-08-21T05:22:40;13.60;99.90
20068;DHT22;10194;50.824;7.134;2022-08-21T05:25:07;13.60;99.90
20068;DHT22;10194;50.824;7.134;2022-08-21T05:27:34;13.60;99.90
20068;DHT22;10194;50.824;7.134;2022-08-21T05:30:00;13.70;99.90
20068;DHT22;10194;50.824;7.134;2022-08-21T05:32:26;13.70;99.90
20068;DHT22;10194;50.824;7.134;2022-08-21T05:34:54;13.70;99.90
20068;DHT22;10194;50.824;7.134;2022-08-21T05:37:20;13.70;99.90
20068;DHT22;10194;50.824;7.134;2022-08-21T05:39:46;13.70;99.90
20068;DHT22;10194;50.824;7.134;2022-08-21T05:42:12;13.80;99.90
20068;DHT22;10194;50.824;7.134;2022-08-21T05:44:37;13.80;99.90
20068;DHT22;10194;50.824;7.134;2022-08-21T05:47:09;13.90;99.90
20068;DHT22;10194;50.824;7.134;2022-08-21T05:49:36;13.90;99.90
20068;DHT22;10194;50.824;7.134;2022-08-21T05:52:03;13.90;99.90
20068;DHT22;10194;50.824;7.134;2022-08-21T05:54:30;14.00;99.90
20068;DHT22;10194;50.824;7.134;2022-08-21T05:56:56;14.10;99.90
20068;DHT22;10194;50.824;7.134;2022-08-21T05:59:22;14.20;99.90
20068;DHT22;10194;50.824;7.134;2022-08-21T06:01:48;14.50;99.90
20068;DHT22;10194;50.824;7.134;2022-08-21T06:04:15;14.90;99.90
20068;DHT22;10194;50.824;7.134;2022-08-21T06:06:41;15.20;99.90
20068;DHT22;10194;50.824;7.134;2022-08-21T06:09:07;15.50;99.90
20068;DHT22;10194;50.824;7.134;2022-08-21T06:11:33;15.80;99.90
20068;DHT22;10194;50.824;7.134;2022-08-21T06:13:59;16.10;99.90
20068;DHT22;10194;50.824;7.134;2022-08-21T06:16:26;16.10;99.90
20068;DHT22;10194;50.824;7.134;2022-08-21T06:18:53;16.10;99.90
20068;DHT22;10194;50.824;7.134;2022-08-21T06:21:19;16.20;99.90
20068;DHT22;10194;50.824;7.134;2022-08-21T06:23:45;16.30;99.90
20068;DHT22;10194;50.824;7.134;2022-08-21T06:26:13;16.70;99.90
20068;DHT22;10194;50.824;7.134;2022-08-21T06:28:40;17.10;99.90
20068;DHT22;10194;50.824;7.134;2022-08-21T06:31:19;17.30;99.90
20068;DHT22;10194;50.824;7.134;2022-08-21T06:33:47;17.50;99.90
20068;DHT22;10194;50.824;7.134;2022-08-21T06:36:14;18.00;99.90
20068;DHT22;10194;50.824;7.134;2022-08-21T06:38:40;18.50;99.90
20068;DHT22;10194;50.824;7.134;2022-08-21T06:41:06;18.90;99.90
20068;DHT22;10194;50.824;7.134;2022-08-21T06:43:33;18.90;99.90
20068;DHT22;10194;50.824;7.134;2022-08-21T06:45:58;19.20;99.90
20068;DHT22;10194;50.824;7.134;2022-08-21T06:48:24;19.60;99.90
20068;DHT22;10194;50.824;7.134;2022-08-21T06:50:50;19.60;99.90
20068;DHT22;10194;50.824;7.134;2022-08-21T06:53:19;19.60;99.90
20068;DHT22;10194;50.824;7.134;2022-08-21T06:55:46;19.90;99.90
20068;DHT22;10194;50.824;7.134;2022-08-21T06:58:14;20.20;99.90
20068;DHT22;10194;50.824;7.134;2022-08-21T07:00:42;20.60;99.90
20068;DHT22;10194;50.824;7.134;2022-08-21T07:05:47;21.20;99.90
20068;DHT22;10194;50.824;7.134;2022-08-21T07:08:14;21.60;99.90
20068;DHT22;10194;50.824;7.134;2022-08-21T07:10:39;22.20;99.90
20068;DHT22;10194;50.824;7.134;2022-08-21T07:13:05;22.50;99.90
20068;DHT22;10194;50.824;7.134;2022-08-21T07:15:31;22.70;99.90
20068;DHT22;10194;50.824;7.134;2022-08-21T07:17:58;22.10;99.90
20068;DHT22;10194;50.824;7.134;2022-08-21T07:20:25;22.30;99.90
20068;DHT22;10194;50.824;7.134;2022-08-21T07:22:51;22.10;99.90
20068;DHT22;10194;50.824;7.134;2022-08-21T07:25:17;22.20;99.90
20068;DHT22;10194;50.824;7.134;2022-08-21T07:27:43;22.40;99.90
20068;DHT22;10194;50.824;7.134;2022-08-21T07:30:09;22.70;99.90
20068;DHT22;10194;50.824;7.134;2022-08-21T07:32:35;22.90;99.90
20068;DHT22;10194;50.824;7.134;2022-08-21T07:35:01;23.30;99.90
20068;DHT22;10194;50.824;7.134;2022-08-21T07:37:28;23.80;99.00
20068;DHT22;10194;50.824;7.134;2022-08-21T07:39:53;24.10;97.30
20068;DHT22;10194;50.824;7.134;2022-08-21T07:42:19;24.10;96.40
20068;DHT22;10194;50.824;7.134;2022-08-21T07:44:45;24.20;97.60
20068;DHT22;10194;50.824;7.134;2022-08-21T07:47:11;23.70;97.40
20068;DHT22;10194;50.824;7.134;2022-08-21T07:49:37;23.60;98.50
20068;DHT22;10194;50.824;7.134;2022-08-21T07:52:03;23.60;98.10
20068;DHT22;10194;50.824;7.134;2022-08-21T07:54:29;23.10;98.90
20068;DHT22;10194;50.824;7.134;2022-08-21T07:56:55;23.20;99.90
20068;DHT22;10194;50.824;7.134;2022-08-21T07:59:20;22.60;98.70
20068;DHT22;10194;50.824;7.134;2022-08-21T08:01:46;22.60;99.40
20068;DHT22;10194;50.824;7.134;2022-08-21T08:04:12;22.40;99.90
20068;DHT22;10194;50.824;7.134;2022-08-21T08:06:38;22.10;99.90
20068;DHT22;10194;50.824;7.134;2022-08-21T08:09:04;22.30;99.90
20068;DHT22;10194;50.824;7.134;2022-08-21T08:11:30;22.40;99.90
20068;DHT22;10194;50.824;7.134;2022-08-21T08:13:55;22.20;99.90
20068;DHT22;10194;50.824;7.134;2022-08-21T08:16:23;22.20;99.90
20068;DHT22;10194;50.824;7.134;2022-08-21T08:18:49;22.40;99.90
20068;DHT22;10194;50.824;7.134;2022-08-21T08:21:16;22.70;99.90
20068;DHT22;10194;50.824;7.134;2022-08-21T08:23:44;23.00;99.90
20068;DHT22;10194;50.824;7.134;2022-08-21T08:26:10;23.00;99.70
20068;DHT22;10194;50.824;7.134;2022-08-21T08:28:37;23.40;99.90
20068;DHT22;10194;50.824;7.134;2022-08-21T08:31:03;23.60;98.00
20068;DHT22;10194;50.824;7.134;2022-08-21T08:33:29;23.80;97.20
20068;DHT22;10194;50.824;7.134;2022-08-21T08:35:55;23.90;97.60
20068;DHT22;10194;50.824;7.134;2022-08-21T08:38:24;23.80;97.50
20068;DHT22;10194;50.824;7.134;2022-08-21T08:43:40;23.70;97.40
20068;DHT22;10194;50.824;7.134;2022-08-21T08:46:13;23.70;96.00
20068;DHT22;10194;50.824;7.134;2022-08-21T08:48:58;23.30;96.60
20068;DHT22;10194;50.824;7.134;2022-08-21T08:51:55;23.50;97.00
20068;DHT22;10194;50.824;7.134;2022-08-21T08:54:56;23.10;96.60
20068;DHT22;10194;50.824;7.134;2022-08-21T08:57:23;23.10;96.40
20068;DHT22;10194;50.824;7.134;2022-08-21T08:59:56;23.50;96.60
20068;DHT22;10194;50.824;7.134;2022-08-21T09:02:24;23.70;97.20
20068;DHT22;10194;50.824;7.134;2022-08-21T09:04:53;23.90;95.20
20068;DHT22;10194;50.824;7.134;2022-08-21T09:13:24;24.10;94.80
20068;DHT22;10194;50.824;7.134;2022-08-21T09:25:21;24.40;93.60
20068;DHT22;10194;50.824;7.134;2022-08-21T09:27:50;24.40;94.00
20068;DHT22;10194;50.824;7.134;2022-08-21T09:30:17;24.50;94.00
20068;DHT22;10194;50.824;7.134;2022-08-21T09:32:45;24.10;92.40
20068;DHT22;10194;50.824;7.134;2022-08-21T09:35:15;24.10;93.00
20068;DHT22;10194;50.824;7.134;2022-08-21T09:38:03;24.20;93.10
20068;DHT22;10194;50.824;7.134;2022-08-21T09:45:38;23.90;93.40
20068;DHT22;10194;50.824;7.134;2022-08-21T09:48:23;23.80;93.40
20068;DHT22;10194;50.824;7.134;2022-08-21T09:50:52;23.90;92.40
20068;DHT22;10194;50.824;7.134;2022-08-21T09:53:28;24.10;93.40
20068;DHT22;10194;50.824;7.134;2022-08-21T09:56:05;24.30;91.80
20068;DHT22;10194;50.824;7.134;2022-08-21T09:59:11;24.20;91.50
20068;DHT22;10194;50.824;7.134;2022-08-21T10:01:59;24.40;91.10
20068;DHT22;10194;50.824;7.134;2022-08-21T10:04:33;24.40;90.60
20068;DHT22;10194;50.824;7.134;2022-08-21T10:07:13;24.50;91.30
20068;DHT22;10194;50.824;7.134;2022-08-21T10:09:41;24.60;91.40
20068;DHT22;10194;50.824;7.134;2022-08-21T10:12:13;24.60;90.80
20068;DHT22;10194;50.824;7.134;2022-08-21T10:15:09;24.80;90.80
20068;DHT22;10194;50.824;7.134;2022-08-21T10:17:49;24.90;90.80
20068;DHT22;10194;50.824;7.134;2022-08-21T10:23:35;25.10;88.60
20068;DHT22;10194;50.824;7.134;2022-08-21T10:38:34;25.40;86.30
20068;DHT22;10194;50.824;7.134;2022-08-21T10:47:14;25.30;86.20
20068;DHT22;10194;50.824;7.134;2022-08-21T10:55:51;24.40;87.00
20068;DHT22;10194;50.824;7.134;2022-08-21T10:58:30;24.10;87.60
20068;DHT22;10194;50.824;7.134;2022-08-21T11:01:05;24.10;88.50
20068;DHT22;10194;50.824;7.134;2022-08-21T11:04:09;24.20;88.70
20068;DHT22;10194;50.824;7.134;2022-08-21T11:06:40;24.60;88.20
20068;DHT22;10194;50.824;7.134;2022-08-21T11:09:13;24.90;85.30
20068;DHT22;10194;50.824;7.134;2022-08-21T11:11:57;25.10;83.10
20068;DHT22;10194;50.824;7.134;2022-08-21T11:20:50;24.90;83.30
20068;DHT22;10194;50.824;7.134;2022-08-21T11:23:27;25.20;82.70
20068;DHT22;10194;50.824;7.134;2022-08-21T11:26:05;25.20;81.60
20068;DHT22;10194;50.824;7.134;2022-08-21T11:28:52;25.10;81.50
20068;DHT22;10194;50.824;7.134;2022-08-21T11:31:38;25.00;81.70
20068;DHT22;10194;50.824;7.134;2022-08-21T11:38:25;25.40;82.10
20068;DHT22;10194;50.824;7.134;2022-08-21T11:46:31;24.90;81.20
20068;DHT22;10194;50.824;7.134;2022-08-21T11:51:56;25.50;82.50
20068;DHT22;10194;50.824;7.134;2022-08-21T11:54:46;25.70;79.80
20068;DHT22;10194;50.824;7.134;2022-08-21T12:00:31;25.50;79.20
20068;DHT22;10194;50.824;7.134;2022-08-21T12:03:55;25.50;78.40
20068;DHT22;10194;50.824;7.134;2022-08-21T12:06:15;25.50;78.40
20068;DHT22;10194;50.824;7.134;2022-08-21T12:08:43;25.70;80.30
20068;DHT22;10194;50.824;7.134;2022-08-21T12:16:33;26.00;78.80
20068;DHT22;10194;50.824;7.134;2022-08-21T12:22:14;26.00;79.00
20068;DHT22;10194;50.824;7.134;2022-08-21T12:24:46;25.80;77.60
20068;DHT22;10194;50.824;7.134;2022-08-21T12:29:50;25.70;77.90
20068;DHT22;10194;50.824;7.134;2022-08-21T12:32:29;25.70;78.10
20068;DHT22;10194;50.824;7.134;2022-08-21T12:35:18;25.60;78.40
20068;DHT22;10194;50.824;7.134;2022-08-21T12:38:39;25.70;78.70
20068;DHT22;10194;50.824;7.134;2022-08-21T12:40:57;25.60;76.90
20068;DHT22;10194;50.824;7.134;2022-08-21T12:43:37;25.60;77.50
20068;DHT22;10194;50.824;7.134;2022-08-21T12:46:04;25.70;77.30
20068;DHT22;10194;50.824;7.134;2022-08-21T12:48:39;25.90;75.80
20068;DHT22;10194;50.824;7.134;2022-08-21T12:53:54;25.80;74.50
20068;DHT22;10194;50.824;7.134;2022-08-21T12:56:24;25.70;74.10
20068;DHT22;10194;50.824;7.134;2022-08-21T12:59:02;25.50;75.50
20068;DHT22;10194;50.824;7.134;2022-08-21T13:01:39;25.70;75.80
20068;DHT22;10194;50.824;7.134;2022-08-21T13:04:17;25.50;75.30
20068;DHT22;10194;50.824;7.134;2022-08-21T13:06:49;25.50;76.20
20068;DHT22;10194;50.824;7.134;2022-08-21T13:09:23;25.80;77.30
20068;DHT22;10194;50.824;7.134;2022-08-21T13:11:51;25.70;75.70
20068;DHT22;10194;50.824;7.134;2022-08-21T13:14:31;25.70;74.10
20068;DHT22;10194;50.824;7.134;2022-08-21T13:17:03;25.60;74.80
20068;DHT22;10194;50.824;7.134;2022-08-21T13:19:30;25.70;75.00
20068;DHT22;10194;50.824;7.134;2022-08-21T13:22:00;25.60;75.40
20068;DHT22;10194;50.824;7.134;2022-08-21T13:24:33;25.80;74.50
20068;DHT22;10194;50.824;7.134;2022-08-21T13:27:00;26.00;74.30
20068;DHT22;10194;50.824;7.134;2022-08-21T13:29:30;26.00;74.00
20068;DHT22;10194;50.824;7.134;2022-08-21T13:32:05;25.70;73.70
20068;DHT22;10194;50.824;7.134;2022-08-21T13:34:37;25.80;74.00
20068;DHT22;10194;50.824;7.134;2022-08-21T13:37:08;25.80;73.10
20068;DHT22;10194;50.824;7.134;2022-08-21T13:39:37;26.00;72.90
20068;DHT22;10194;50.824;7.134;2022-08-21T13:42:08;26.10;73.10
20068;DHT22;10194;50.824;7.134;2022-08-21T13:44:41;26.40;73.70
20068;DHT22;10194;50.824;7.134;2022-08-21T13:47:10;26.30;73.10
20068;DHT22;10194;50.824;7.134;2022-08-21T13:49:51;26.60;72.00
20068;DHT22;10194;50.824;7.134;2022-08-21T13:52:23;26.60;72.50
20068;DHT22;10194;50.824;7.134;2022-08-21T13:55:08;26.70;72.10
20068;DHT22;10194;50.824;7.134;2022-08-21T13:57:37;26.60;70.80
20068;DHT22;10194;50.824;7.134;2022-08-21T14:00:31;26.30;71.60
20068;DHT22;10194;50.824;7.134;2022-08-21T14:03:05;26.10;71.50
20068;DHT22;10194;50.824;7.134;2022-08-21T14:05:35;26.10;71.70
20068;DHT22;10194;50.824;7.134;2022-08-21T14:08:10;26.10;72.90
20068;DHT22;10194;50.824;7.134;2022-08-21T14:10:44;26.20;72.60
20068;DHT22;10194;50.824;7.134;2022-08-21T14:16:11;26.30;72.70
20068;DHT22;10194;50.824;7.134;2022-08-21T14:18:45;26.00;73.00
20068;DHT22;10194;50.824;7.134;2022-08-21T14:21:13;26.00;72.90
20068;DHT22;10194;50.824;7.134;2022-08-21T14:23:40;25.80;72.40
20068;DHT22;10194;50.824;7.134;2022-08-21T14:26:07;25.70;72.80
20068;DHT22;10194;50.824;7.134;2022-08-21T14:28:39;25.50;72.40
20068;DHT22;10194;50.824;7.134;2022-08-21T14:31:17;25.50;73.40
20068;DHT22;10194;50.824;7.134;2022-08-21T14:33:45;25.50;74.00
20068;DHT22;10194;50.824;7.134;2022-08-21T14:36:11;25.40;74.50
20068;DHT22;10194;50.824;7.134;2022-08-21T14:38:39;25.30;74.40
20068;DHT22;10194;50.824;7.134;2022-08-21T14:41:16;25.40;75.20
20068;DHT22;10194;50.824;7.134;2022-08-21T14:43:44;25.40;75.80
20068;DHT22;10194;50.824;7.134;2022-08-21T14:46:12;25.40;76.30
20068;DHT22;10194;50.824;7.134;2022-08-21T14:48:39;25.50;75.30
20068;DHT22;10194;50.824;7.134;2022-08-21T14:51:05;25.60;75.40
20068;DHT22;10194;50.824;7.134;2022-08-21T14:53:31;25.50;74.90
20068;DHT22;10194;50.824;7.134;2022-08-21T14:55:57;25.40;75.60
20068;DHT22;10194;50.824;7.134;2022-08-21T14:58:37;25.40;75.30
20068;DHT22;10194;50.824;7.134;2022-08-21T15:01:08;25.40;75.90
20068;DHT22;10194;50.824;7.134;2022-08-21T15:03:36;25.40;76.30
20068;DHT22;10194;50.824;7.134;2022-08-21T15:06:04;25.40;75.70
20068;DHT22;10194;50.824;7.134;2022-08-21T15:08:30;25.40;75.90
20068;DHT22;10194;50.824;7.134;2022-08-21T15:10:58;25.40;76.20
20068;DHT22;10194;50.824;7.134;2022-08-21T15:13:24;25.50;75.90
20068;DHT22;10194;50.824;7.134;2022-08-21T15:15:51;25.60;76.90
20068;DHT22;10194;50.824;7.134;2022-08-21T15:18:19;25.80;75.80
20068;DHT22;10194;50.824;7.134;2022-08-21T15:20:46;25.80;75.20
20068;DHT22;10194;50.824;7.134;2022-08-21T15:23:12;25.90;75.80
20068;DHT22;10194;50.824;7.134;2022-08-21T15:25:41;25.90;75.40
20068;DHT22;10194;50.824;7.134;2022-08-21T15:28:08;25.90;76.50
20068;DHT22;10194;50.824;7.134;2022-08-21T15:30:35;26.00;75.60
20068;DHT22;10194;50.824;7.134;2022-08-21T15:33:03;26.10;75.70
20068;DHT22;10194;50.824;7.134;2022-08-21T15:35:32;26.00;75.40
20068;DHT22;10194;50.824;7.134;2022-08-21T15:37:58;25.80;75.80
20068;DHT22;10194;50.824;7.134;2022-08-21T15:40:24;25.70;76.20
20068;DHT22;10194;50.824;7.134;2022-08-21T15:42:53;25.60;76.40
20068;DHT22;10194;50.824;7.134;2022-08-21T15:45:22;25.60;76.90
20068;DHT22;10194;50.824;7.134;2022-08-21T15:47:49;25.70;76.50
20068;DHT22;10194;50.824;7.134;2022-08-21T15:50:15;25.60;75.60
20068;DHT22;10194;50.824;7.134;2022-08-21T15:52:41;25.50;76.30
20068;DHT22;10194;50.824;7.134;2022-08-21T15:55:08;25.40;76.00
20068;DHT22;10194;50.824;7.134;2022-08-21T15:57:36;25.50;75.90
20068;DHT22;10194;50.824;7.134;2022-08-21T16:00:15;25.40;75.60
20068;DHT22;10194;50.824;7.134;2022-08-21T16:02:50;25.30;76.40
20068;DHT22;10194;50.824;7.134;2022-08-21T16:05:19;25.30;75.90
20068;DHT22;10194;50.824;7.134;2022-08-21T16:07:46;25.20;75.60
20068;DHT22;10194;50.824;7.134;2022-08-21T16:10:14;25.10;75.10
20068;DHT22;10194;50.824;7.134;2022-08-21T16:12:46;25.10;75.30
20068;DHT22;10194;50.824;7.134;2022-08-21T16:15:16;25.00;75.20
20068;DHT22;10194;50.824;7.134;2022-08-21T16:17:45;25.10;75.30
20068;DHT22;10194;50.824;7.134;2022-08-21T16:20:22;25.10;74.90
20068;DHT22;10194;50.824;7.134;2022-08-21T16:22:54;25.20;75.50
20068;DHT22;10194;50.824;7.134;2022-08-21T16:25:21;25.30;75.10
20068;DHT22;10194;50.824;7.134;2022-08-21T16:27:53;25.40;75.70
20068;DHT22;10194;50.824;7.134;2022-08-21T16:30:23;25.50;74.90
20068;DHT22;10194;50.824;7.134;2022-08-21T16:32:50;25.60;74.30
20068;DHT22;10194;50.824;7.134;2022-08-21T16:35:18;25.70;74.60
20068;DHT22;10194;50.824;7.134;2022-08-21T16:37:46;25.80;73.50
20068;DHT22;10194;50.824;7.134;2022-08-21T16:40:12;25.80;73.70
20068;DHT22;10194;50.824;7.134;2022-08-21T16:42:40;25.70;74.00
20068;DHT22;10194;50.824;7.134;2022-08-21T16:45:17;25.50;74.00
20068;DHT22;10194;50.824;7.134;2022-08-21T16:47:44;25.60;74.70
20068;DHT22;10194;50.824;7.134;2022-08-21T16:50:14;25.60;73.90
20068;DHT22;10194;50.824;7.134;2022-08-21T16:52:41;25.60;73.70
20068;DHT22;10194;50.824;7.134;2022-08-21T16:55:08;25.50;74.70
20068;DHT22;10194;50.824;7.134;2022-08-21T16:57:35;25.20;74.20
20068;DHT22;10194;50.824;7.134;2022-08-21T17:00:02;25.10;75.50
20068;DHT22;10194;50.824;7.134;2022-08-21T17:02:34;25.00;74.60
20068;DHT22;10194;50.824;7.134;2022-08-21T17:05:01;24.90;75.50
20068;DHT22;10194;50.824;7.134;2022-08-21T17:07:29;24.80;76.10
20068;DHT22;10194;50.824;7.134;2022-08-21T17:09:55;24.80;75.40
20068;DHT22;10194;50.824;7.134;2022-08-21T17:12:22;24.70;76.70
20068;DHT22;10194;50.824;7.134;2022-08-21T17:14:48;24.70;76.10
20068;DHT22;10194;50.824;7.134;2022-08-21T17:17:15;24.70;77.40
20068;DHT22;10194;50.824;7.134;2022-08-21T17:19:44;24.70;76.50
20068;DHT22;10194;50.824;7.134;2022-08-21T17:22:10;24.60;75.80